Terminal Aerodrome Forecast
Issued by NWS

Home | Current Version | Previous Version | Text Only | Print | Product List | Glossary On
Versions: 1 2 3 4 5 6 7 8 9 10 11 12 13 14 15 16 17 18 19 20 21 22 23 24 25 26 27 28 29 30 31 32 33 34 35 36
000
FTAK31 PAFA 111736
TAFAGA
TAF
PAGA 111736Z 1118/1218 VRB03KT 3SM -SN BR BKN015 OVC030
     FM112100 06007KT 3SM -FZRASN BR OVC015
     FM120500 12010KT 5SM -SN SCT015 BKN050
     FM121300 10012KT P6SM BKN050
      AMD NOT SKED=

USA.gov is the U.S. government's official web portal to all federal, state and local government web resources and services.